METAR Data
IDs: Format: Raw Decoded Include TAF

Data at: 1410 UTC 20 Oct 2021

PAOR 201353Z 00000KT 10SM OVC004 M16/M18 A2937 RMK AO2 SLP990 T11561178